sensor_id;sensor_type;location;lat;lon;timestamp;temperature;humidity
14093;DHT22;7123;49.468;10.992;2023-10-13T00:00:27;18.10;99.90
14093;DHT22;7123;49.468;10.992;2023-10-13T00:02:59;18.10;99.90
14093;DHT22;7123;49.468;10.992;2023-10-13T00:05:30;18.20;99.90
14093;DHT22;7123;49.468;10.992;2023-10-13T00:08:00;18.10;99.90
14093;DHT22;7123;49.468;10.992;2023-10-13T00:10:28;18.00;99.90
14093;DHT22;7123;49.468;10.992;2023-10-13T00:12:56;17.90;99.90
14093;DHT22;7123;49.468;10.992;2023-10-13T00:15:32;17.90;99.90
14093;DHT22;7123;49.468;10.992;2023-10-13T00:18:07;17.80;99.90
14093;DHT22;7123;49.468;10.992;2023-10-13T00:20:40;17.80;99.90
14093;DHT22;7123;49.468;10.992;2023-10-13T00:23:07;17.80;99.90
14093;DHT22;7123;49.468;10.992;2023-10-13T00:25:34;17.80;99.90
14093;DHT22;7123;49.468;10.992;2023-10-13T00:28:10;17.80;99.90
14093;DHT22;7123;49.468;10.992;2023-10-13T00:30:36;17.90;99.90
14093;DHT22;7123;49.468;10.992;2023-10-13T00:33:03;17.90;99.90
14093;DHT22;7123;49.468;10.992;2023-10-13T00:35:31;18.00;99.90
14093;DHT22;7123;49.468;10.992;2023-10-13T00:38:08;18.00;99.90
14093;DHT22;7123;49.468;10.992;2023-10-13T00:40:44;18.00;99.90
14093;DHT22;7123;49.468;10.992;2023-10-13T00:43:22;18.10;99.90
14093;DHT22;7123;49.468;10.992;2023-10-13T00:46:00;18.00;99.90
14093;DHT22;7123;49.468;10.992;2023-10-13T00:48:32;18.00;99.90
14093;DHT22;7123;49.468;10.992;2023-10-13T00:51:04;18.00;99.90
14093;DHT22;7123;49.468;10.992;2023-10-13T00:53:35;18.00;99.90
14093;DHT22;7123;49.468;10.992;2023-10-13T00:56:11;17.90;99.90
14093;DHT22;7123;49.468;10.992;2023-10-13T00:58:56;17.90;99.90
14093;DHT22;7123;49.468;10.992;2023-10-13T01:01:29;17.80;99.90
14093;DHT22;7123;49.468;10.992;2023-10-13T01:03:59;17.80;99.90
14093;DHT22;7123;49.468;10.992;2023-10-13T01:06:27;17.80;99.90
14093;DHT22;7123;49.468;10.992;2023-10-13T01:11:38;17.90;99.90
14093;DHT22;7123;49.468;10.992;2023-10-13T01:14:06;17.90;99.90
14093;DHT22;7123;49.468;10.992;2023-10-13T01:16:32;17.90;99.90
14093;DHT22;7123;49.468;10.992;2023-10-13T01:19:00;18.00;99.90
14093;DHT22;7123;49.468;10.992;2023-10-13T01:21:31;18.10;99.90
14093;DHT22;7123;49.468;10.992;2023-10-13T01:24:00;18.10;99.90
14093;DHT22;7123;49.468;10.992;2023-10-13T01:26:27;18.20;99.90
14093;DHT22;7123;49.468;10.992;2023-10-13T01:28:57;18.20;99.90
14093;DHT22;7123;49.468;10.992;2023-10-13T01:31:24;18.20;99.90
14093;DHT22;7123;49.468;10.992;2023-10-13T01:33:54;18.30;99.90
14093;DHT22;7123;49.468;10.992;2023-10-13T01:36:21;18.30;99.90
14093;DHT22;7123;49.468;10.992;2023-10-13T01:38:49;18.30;99.90
14093;DHT22;7123;49.468;10.992;2023-10-13T01:41:21;18.30;99.90
14093;DHT22;7123;49.468;10.992;2023-10-13T01:43:48;18.30;99.90
14093;DHT22;7123;49.468;10.992;2023-10-13T01:46:15;18.30;99.90
14093;DHT22;7123;49.468;10.992;2023-10-13T01:48:46;18.20;99.90
14093;DHT22;7123;49.468;10.992;2023-10-13T01:51:13;18.30;99.90
14093;DHT22;7123;49.468;10.992;2023-10-13T01:53:40;18.30;99.90
14093;DHT22;7123;49.468;10.992;2023-10-13T01:56:10;18.30;99.90
14093;DHT22;7123;49.468;10.992;2023-10-13T01:58:38;18.30;99.90
14093;DHT22;7123;49.468;10.992;2023-10-13T02:01:09;18.30;99.90
14093;DHT22;7123;49.468;10.992;2023-10-13T02:03:37;18.30;99.90
14093;DHT22;7123;49.468;10.992;2023-10-13T02:06:13;18.30;99.90
14093;DHT22;7123;49.468;10.992;2023-10-13T02:08:44;18.30;99.90
14093;DHT22;7123;49.468;10.992;2023-10-13T02:11:13;18.30;99.90
14093;DHT22;7123;49.468;10.992;2023-10-13T02:13:45;18.30;99.90
14093;DHT22;7123;49.468;10.992;2023-10-13T02:16:16;18.30;99.90
14093;DHT22;7123;49.468;10.992;2023-10-13T02:18:48;18.30;99.90
14093;DHT22;7123;49.468;10.992;2023-10-13T02:21:18;18.30;99.90
14093;DHT22;7123;49.468;10.992;2023-10-13T02:23:45;18.30;99.90
14093;DHT22;7123;49.468;10.992;2023-10-13T02:26:13;18.30;99.90
14093;DHT22;7123;49.468;10.992;2023-10-13T02:29:00;18.30;99.90
14093;DHT22;7123;49.468;10.992;2023-10-13T02:31:37;18.20;99.90
14093;DHT22;7123;49.468;10.992;2023-10-13T02:34:05;18.30;99.90
14093;DHT22;7123;49.468;10.992;2023-10-13T02:36:39;18.20;99.90
14093;DHT22;7123;49.468;10.992;2023-10-13T02:39:18;18.30;99.90
14093;DHT22;7123;49.468;10.992;2023-10-13T02:41:54;18.20;99.90
14093;DHT22;7123;49.468;10.992;2023-10-13T02:44:23;18.20;99.90
14093;DHT22;7123;49.468;10.992;2023-10-13T02:46:54;18.20;99.90
14093;DHT22;7123;49.468;10.992;2023-10-13T02:49:26;18.20;99.90
14093;DHT22;7123;49.468;10.992;2023-10-13T02:51:54;18.20;99.90
14093;DHT22;7123;49.468;10.992;2023-10-13T02:54:26;18.20;99.90
14093;DHT22;7123;49.468;10.992;2023-10-13T02:56:58;18.20;99.90
14093;DHT22;7123;49.468;10.992;2023-10-13T02:59:26;18.20;99.90
14093;DHT22;7123;49.468;10.992;2023-10-13T03:02:16;18.20;99.90
14093;DHT22;7123;49.468;10.992;2023-10-13T03:04:49;18.20;99.90
14093;DHT22;7123;49.468;10.992;2023-10-13T03:07:16;18.20;99.90
14093;DHT22;7123;49.468;10.992;2023-10-13T03:09:50;18.20;99.90
14093;DHT22;7123;49.468;10.992;2023-10-13T03:12:19;18.20;99.90
14093;DHT22;7123;49.468;10.992;2023-10-13T03:14:45;18.20;99.90
14093;DHT22;7123;49.468;10.992;2023-10-13T03:17:15;18.20;99.90
14093;DHT22;7123;49.468;10.992;2023-10-13T03:19:46;18.20;99.90
14093;DHT22;7123;49.468;10.992;2023-10-13T03:22:17;18.20;99.90
14093;DHT22;7123;49.468;10.992;2023-10-13T03:24:45;18.20;99.90
14093;DHT22;7123;49.468;10.992;2023-10-13T03:27:14;18.20;99.90
14093;DHT22;7123;49.468;10.992;2023-10-13T03:29:49;18.10;99.90
14093;DHT22;7123;49.468;10.992;2023-10-13T03:32:22;18.10;99.90
14093;DHT22;7123;49.468;10.992;2023-10-13T03:34:53;18.10;99.90
14093;DHT22;7123;49.468;10.992;2023-10-13T03:37:21;18.10;99.90
14093;DHT22;7123;49.468;10.992;2023-10-13T03:40:07;18.10;99.90
14093;DHT22;7123;49.468;10.992;2023-10-13T03:42:47;18.10;99.90
14093;DHT22;7123;49.468;10.992;2023-10-13T03:45:35;18.10;99.90
14093;DHT22;7123;49.468;10.992;2023-10-13T03:48:07;18.00;99.90
14093;DHT22;7123;49.468;10.992;2023-10-13T03:51:03;18.10;99.90
14093;DHT22;7123;49.468;10.992;2023-10-13T03:53:31;18.00;99.90
14093;DHT22;7123;49.468;10.992;2023-10-13T03:56:05;18.20;99.90
14093;DHT22;7123;49.468;10.992;2023-10-13T03:58:39;18.00;99.90
14093;DHT22;7123;49.468;10.992;2023-10-13T04:01:13;18.00;99.90
14093;DHT22;7123;49.468;10.992;2023-10-13T04:03:43;18.00;99.90
14093;DHT22;7123;49.468;10.992;2023-10-13T04:06:31;18.00;99.90
14093;DHT22;7123;49.468;10.992;2023-10-13T04:09:21;18.20;99.90
14093;DHT22;7123;49.468;10.992;2023-10-13T04:12:07;18.00;99.90
14093;DHT22;7123;49.468;10.992;2023-10-13T04:14:53;18.00;99.90
14093;DHT22;7123;49.468;10.992;2023-10-13T04:17:32;18.00;99.90
14093;DHT22;7123;49.468;10.992;2023-10-13T04:20:07;18.00;99.90
14093;DHT22;7123;49.468;10.992;2023-10-13T04:22:42;18.00;99.90
14093;DHT22;7123;49.468;10.992;2023-10-13T04:25:27;17.90;99.90
14093;DHT22;7123;49.468;10.992;2023-10-13T04:28:10;17.90;99.90
14093;DHT22;7123;49.468;10.992;2023-10-13T04:33:32;18.00;99.90
14093;DHT22;7123;49.468;10.992;2023-10-13T04:36:08;18.00;99.90
14093;DHT22;7123;49.468;10.992;2023-10-13T04:38:51;17.90;99.90
14093;DHT22;7123;49.468;10.992;2023-10-13T04:41:39;18.00;99.90
14093;DHT22;7123;49.468;10.992;2023-10-13T04:44:14;17.90;99.90
14093;DHT22;7123;49.468;10.992;2023-10-13T04:47:10;18.00;99.90
14093;DHT22;7123;49.468;10.992;2023-10-13T04:49:45;17.90;99.90
14093;DHT22;7123;49.468;10.992;2023-10-13T04:52:15;17.90;99.90
14093;DHT22;7123;49.468;10.992;2023-10-13T04:55:02;17.90;99.90
14093;DHT22;7123;49.468;10.992;2023-10-13T04:57:51;17.90;99.90
14093;DHT22;7123;49.468;10.992;2023-10-13T05:00:26;17.90;99.90
14093;DHT22;7123;49.468;10.992;2023-10-13T05:03:11;17.90;99.90
14093;DHT22;7123;49.468;10.992;2023-10-13T05:05:58;17.90;99.90
14093;DHT22;7123;49.468;10.992;2023-10-13T05:08:57;17.90;99.90
14093;DHT22;7123;49.468;10.992;2023-10-13T05:11:42;17.90;99.90
14093;DHT22;7123;49.468;10.992;2023-10-13T05:14:28;17.90;99.90
14093;DHT22;7123;49.468;10.992;2023-10-13T05:17:13;17.90;99.90
14093;DHT22;7123;49.468;10.992;2023-10-13T05:19:59;17.90;99.90
14093;DHT22;7123;49.468;10.992;2023-10-13T05:22:44;17.90;99.90
14093;DHT22;7123;49.468;10.992;2023-10-13T05:25:29;17.90;99.90
14093;DHT22;7123;49.468;10.992;2023-10-13T05:28:14;17.90;99.90
14093;DHT22;7123;49.468;10.992;2023-10-13T05:31:11;17.80;99.90
14093;DHT22;7123;49.468;10.992;2023-10-13T05:33:56;17.80;99.90
14093;DHT22;7123;49.468;10.992;2023-10-13T05:36:42;17.90;99.90
14093;DHT22;7123;49.468;10.992;2023-10-13T05:39:27;17.80;99.90
14093;DHT22;7123;49.468;10.992;2023-10-13T05:42:13;17.90;99.90
14093;DHT22;7123;49.468;10.992;2023-10-13T05:44:58;17.90;99.90
14093;DHT22;7123;49.468;10.992;2023-10-13T05:47:44;17.90;99.90
14093;DHT22;7123;49.468;10.992;2023-10-13T05:50:12;17.90;99.90
14093;DHT22;7123;49.468;10.992;2023-10-13T05:52:49;18.00;99.90
14093;DHT22;7123;49.468;10.992;2023-10-13T05:58:11;17.90;99.90
14093;DHT22;7123;49.468;10.992;2023-10-13T06:00:57;17.90;99.90
14093;DHT22;7123;49.468;10.992;2023-10-13T06:03:43;18.00;99.90
14093;DHT22;7123;49.468;10.992;2023-10-13T06:06:29;18.00;99.90
14093;DHT22;7123;49.468;10.992;2023-10-13T06:09:14;18.00;99.90
14093;DHT22;7123;49.468;10.992;2023-10-13T06:12:00;18.00;99.90
14093;DHT22;7123;49.468;10.992;2023-10-13T06:14:46;18.00;99.90
14093;DHT22;7123;49.468;10.992;2023-10-13T06:17:32;18.00;99.90
14093;DHT22;7123;49.468;10.992;2023-10-13T06:20:17;18.00;99.90
14093;DHT22;7123;49.468;10.992;2023-10-13T06:23:03;18.00;99.90
14093;DHT22;7123;49.468;10.992;2023-10-13T06:25:52;18.10;99.90
14093;DHT22;7123;49.468;10.992;2023-10-13T06:28:38;18.00;99.90
14093;DHT22;7123;49.468;10.992;2023-10-13T06:31:09;18.00;99.90
14093;DHT22;7123;49.468;10.992;2023-10-13T06:33:55;18.10;99.90
14093;DHT22;7123;49.468;10.992;2023-10-13T06:36:22;18.00;99.90
14093;DHT22;7123;49.468;10.992;2023-10-13T06:38:49;18.10;99.90
14093;DHT22;7123;49.468;10.992;2023-10-13T06:41:22;18.10;99.90
14093;DHT22;7123;49.468;10.992;2023-10-13T06:43:57;18.10;99.90
14093;DHT22;7123;49.468;10.992;2023-10-13T06:46:28;18.10;99.90
14093;DHT22;7123;49.468;10.992;2023-10-13T06:48:56;18.10;99.90
14093;DHT22;7123;49.468;10.992;2023-10-13T06:51:26;18.10;99.90
14093;DHT22;7123;49.468;10.992;2023-10-13T06:53:57;18.10;99.90
14093;DHT22;7123;49.468;10.992;2023-10-13T06:56:24;18.10;99.90
14093;DHT22;7123;49.468;10.992;2023-10-13T06:58:55;18.10;99.90
14093;DHT22;7123;49.468;10.992;2023-10-13T07:01:31;18.10;99.90
14093;DHT22;7123;49.468;10.992;2023-10-13T07:04:09;18.10;99.90
14093;DHT22;7123;49.468;10.992;2023-10-13T07:06:43;18.10;99.90
14093;DHT22;7123;49.468;10.992;2023-10-13T07:09:17;18.20;99.90
14093;DHT22;7123;49.468;10.992;2023-10-13T07:12:04;18.20;99.90
14093;DHT22;7123;49.468;10.992;2023-10-13T07:14:33;18.20;99.90
14093;DHT22;7123;49.468;10.992;2023-10-13T07:17:02;18.20;99.90
14093;DHT22;7123;49.468;10.992;2023-10-13T07:19:31;18.20;99.90
14093;DHT22;7123;49.468;10.992;2023-10-13T07:22:03;18.20;99.90
14093;DHT22;7123;49.468;10.992;2023-10-13T07:24:47;18.30;99.90
14093;DHT22;7123;49.468;10.992;2023-10-13T07:27:20;18.30;99.90
14093;DHT22;7123;49.468;10.992;2023-10-13T07:29:55;18.30;99.90
14093;DHT22;7123;49.468;10.992;2023-10-13T07:32:44;18.30;99.90
14093;DHT22;7123;49.468;10.992;2023-10-13T07:35:16;18.40;99.90
14093;DHT22;7123;49.468;10.992;2023-10-13T07:37:44;18.40;99.90
14093;DHT22;7123;49.468;10.992;2023-10-13T07:40:11;18.40;99.90
14093;DHT22;7123;49.468;10.992;2023-10-13T07:42:51;18.50;99.90
14093;DHT22;7123;49.468;10.992;2023-10-13T07:45:18;18.50;99.90
14093;DHT22;7123;49.468;10.992;2023-10-13T07:47:48;18.50;99.90
14093;DHT22;7123;49.468;10.992;2023-10-13T07:50:17;18.60;99.90
14093;DHT22;7123;49.468;10.992;2023-10-13T07:52:51;18.60;99.90
14093;DHT22;7123;49.468;10.992;2023-10-13T07:55:46;18.60;99.90
14093;DHT22;7123;49.468;10.992;2023-10-13T07:58:13;18.60;99.90
14093;DHT22;7123;49.468;10.992;2023-10-13T08:00:40;18.60;99.90
14093;DHT22;7123;49.468;10.992;2023-10-13T08:03:10;18.70;99.90
14093;DHT22;7123;49.468;10.992;2023-10-13T08:05:44;18.70;99.90
14093;DHT22;7123;49.468;10.992;2023-10-13T08:08:33;18.70;99.90
14093;DHT22;7123;49.468;10.992;2023-10-13T08:11:07;18.70;99.90
14093;DHT22;7123;49.468;10.992;2023-10-13T08:13:50;18.70;99.90
14093;DHT22;7123;49.468;10.992;2023-10-13T08:16:41;18.80;99.90
14093;DHT22;7123;49.468;10.992;2023-10-13T08:19:16;18.70;99.90
14093;DHT22;7123;49.468;10.992;2023-10-13T08:21:44;18.70;99.90
14093;DHT22;7123;49.468;10.992;2023-10-13T08:24:27;18.70;99.90
14093;DHT22;7123;49.468;10.992;2023-10-13T08:27:07;18.70;99.90
14093;DHT22;7123;49.468;10.992;2023-10-13T08:29:45;18.60;99.90
14093;DHT22;7123;49.468;10.992;2023-10-13T08:32:28;18.70;99.90
14093;DHT22;7123;49.468;10.992;2023-10-13T08:34:59;18.70;99.90
14093;DHT22;7123;49.468;10.992;2023-10-13T08:37:38;18.80;99.90
14093;DHT22;7123;49.468;10.992;2023-10-13T08:40:37;18.80;99.90
14093;DHT22;7123;49.468;10.992;2023-10-13T08:43:32;18.80;99.90
14093;DHT22;7123;49.468;10.992;2023-10-13T08:46:09;18.90;99.90
14093;DHT22;7123;49.468;10.992;2023-10-13T08:48:54;18.90;99.90
14093;DHT22;7123;49.468;10.992;2023-10-13T08:51:33;19.00;99.90
14093;DHT22;7123;49.468;10.992;2023-10-13T08:54:13;19.10;99.90
14093;DHT22;7123;49.468;10.992;2023-10-13T08:56:48;19.10;99.90
14093;DHT22;7123;49.468;10.992;2023-10-13T08:59:30;19.20;99.90
14093;DHT22;7123;49.468;10.992;2023-10-13T09:02:15;19.20;99.90
14093;DHT22;7123;49.468;10.992;2023-10-13T09:04:43;19.30;99.90
14093;DHT22;7123;49.468;10.992;2023-10-13T09:07:13;19.30;99.90
14093;DHT22;7123;49.468;10.992;2023-10-13T09:09:49;19.50;99.90
14093;DHT22;7123;49.468;10.992;2023-10-13T09:12:31;19.40;99.90
14093;DHT22;7123;49.468;10.992;2023-10-13T09:17:32;19.40;99.90
14093;DHT22;7123;49.468;10.992;2023-10-13T09:20:09;19.40;99.90
14093;DHT22;7123;49.468;10.992;2023-10-13T09:22:59;19.40;99.90
14093;DHT22;7123;49.468;10.992;2023-10-13T09:25:35;19.40;99.90
14093;DHT22;7123;49.468;10.992;2023-10-13T09:28:10;19.50;99.90
14093;DHT22;7123;49.468;10.992;2023-10-13T09:30:55;19.50;99.90
14093;DHT22;7123;49.468;10.992;2023-10-13T09:33:27;19.60;99.90
14093;DHT22;7123;49.468;10.992;2023-10-13T09:36:04;19.60;99.90
14093;DHT22;7123;49.468;10.992;2023-10-13T09:38:35;19.60;99.90
14093;DHT22;7123;49.468;10.992;2023-10-13T09:41:22;19.70;99.90
14093;DHT22;7123;49.468;10.992;2023-10-13T09:43:53;19.70;99.90
14093;DHT22;7123;49.468;10.992;2023-10-13T09:46:27;19.70;99.90
14093;DHT22;7123;49.468;10.992;2023-10-13T09:48:58;19.70;99.90
14093;DHT22;7123;49.468;10.992;2023-10-13T09:51:31;19.80;99.90
14093;DHT22;7123;49.468;10.992;2023-10-13T09:54:17;19.90;99.90
14093;DHT22;7123;49.468;10.992;2023-10-13T09:57:10;20.00;99.90
14093;DHT22;7123;49.468;10.992;2023-10-13T09:59:45;20.10;99.90
14093;DHT22;7123;49.468;10.992;2023-10-13T10:02:19;20.20;99.90
14093;DHT22;7123;49.468;10.992;2023-10-13T10:04:54;20.40;99.90
14093;DHT22;7123;49.468;10.992;2023-10-13T10:07:26;20.50;99.90
14093;DHT22;7123;49.468;10.992;2023-10-13T10:09:57;20.50;99.90
14093;DHT22;7123;49.468;10.992;2023-10-13T10:13:01;20.40;99.90
14093;DHT22;7123;49.468;10.992;2023-10-13T10:15:32;20.40;99.90
14093;DHT22;7123;49.468;10.992;2023-10-13T10:18:22;20.40;99.90
14093;DHT22;7123;49.468;10.992;2023-10-13T10:20:51;20.40;99.90
14093;DHT22;7123;49.468;10.992;2023-10-13T10:23:32;20.40;99.90
14093;DHT22;7123;49.468;10.992;2023-10-13T10:26:15;20.30;99.90
14093;DHT22;7123;49.468;10.992;2023-10-13T10:28:47;20.30;99.90
14093;DHT22;7123;49.468;10.992;2023-10-13T10:31:14;20.40;99.90
14093;DHT22;7123;49.468;10.992;2023-10-13T10:33:46;20.40;99.90
14093;DHT22;7123;49.468;10.992;2023-10-13T10:36:28;20.50;99.90
14093;DHT22;7123;49.468;10.992;2023-10-13T10:38:57;20.60;99.90
14093;DHT22;7123;49.468;10.992;2023-10-13T10:41:30;20.60;99.90
14093;DHT22;7123;49.468;10.992;2023-10-13T10:44:15;20.70;99.90
14093;DHT22;7123;49.468;10.992;2023-10-13T10:46:43;20.90;99.90
14093;DHT22;7123;49.468;10.992;2023-10-13T10:49:27;21.20;99.90
14093;DHT22;7123;49.468;10.992;2023-10-13T10:51:59;21.40;99.90
14093;DHT22;7123;49.468;10.992;2023-10-13T10:54:27;21.50;99.90
14093;DHT22;7123;49.468;10.992;2023-10-13T10:57:01;21.80;99.90
14093;DHT22;7123;49.468;10.992;2023-10-13T10:59:54;21.80;99.90
14093;DHT22;7123;49.468;10.992;2023-10-13T11:02:38;21.90;99.90
14093;DHT22;7123;49.468;10.992;2023-10-13T11:05:06;21.90;99.90
14093;DHT22;7123;49.468;10.992;2023-10-13T11:07:33;21.90;99.90
14093;DHT22;7123;49.468;10.992;2023-10-13T11:10:09;22.00;99.90
14093;DHT22;7123;49.468;10.992;2023-10-13T11:13:00;22.10;99.90
14093;DHT22;7123;49.468;10.992;2023-10-13T11:15:43;22.20;99.90
14093;DHT22;7123;49.468;10.992;2023-10-13T11:18:13;22.20;99.90
14093;DHT22;7123;49.468;10.992;2023-10-13T11:20:45;22.40;99.90
14093;DHT22;7123;49.468;10.992;2023-10-13T11:23:15;22.40;99.90
14093;DHT22;7123;49.468;10.992;2023-10-13T11:25:42;22.30;99.90
14093;DHT22;7123;49.468;10.992;2023-10-13T11:28:15;22.30;99.90
14093;DHT22;7123;49.468;10.992;2023-10-13T11:30:58;22.40;99.90
14093;DHT22;7123;49.468;10.992;2023-10-13T11:33:31;22.40;99.90
14093;DHT22;7123;49.468;10.992;2023-10-13T11:36:02;22.50;99.90
14093;DHT22;7123;49.468;10.992;2023-10-13T11:38:32;22.60;99.90
14093;DHT22;7123;49.468;10.992;2023-10-13T11:41:18;22.70;99.90
14093;DHT22;7123;49.468;10.992;2023-10-13T11:43:52;22.90;99.90
14093;DHT22;7123;49.468;10.992;2023-10-13T11:46:25;23.00;99.90
14093;DHT22;7123;49.468;10.992;2023-10-13T11:49:09;23.30;99.90
14093;DHT22;7123;49.468;10.992;2023-10-13T11:51:46;23.40;99.90
14093;DHT22;7123;49.468;10.992;2023-10-13T11:54:22;23.30;99.90
14093;DHT22;7123;49.468;10.992;2023-10-13T11:56:50;23.20;99.90
14093;DHT22;7123;49.468;10.992;2023-10-13T11:59:17;23.50;99.90
14093;DHT22;7123;49.468;10.992;2023-10-13T12:01:45;23.40;99.90
14093;DHT22;7123;49.468;10.992;2023-10-13T12:04:31;23.50;99.90
14093;DHT22;7123;49.468;10.992;2023-10-13T12:07:10;23.60;99.90
14093;DHT22;7123;49.468;10.992;2023-10-13T12:09:51;23.70;99.90
14093;DHT22;7123;49.468;10.992;2023-10-13T12:12:30;23.70;99.90
14093;DHT22;7123;49.468;10.992;2023-10-13T12:15:10;23.70;99.90
14093;DHT22;7123;49.468;10.992;2023-10-13T12:17:52;23.80;99.90
14093;DHT22;7123;49.468;10.992;2023-10-13T12:20:20;23.70;99.90
14093;DHT22;7123;49.468;10.992;2023-10-13T12:23:00;23.60;99.90
14093;DHT22;7123;49.468;10.992;2023-10-13T12:25:42;23.50;99.90
14093;DHT22;7123;49.468;10.992;2023-10-13T12:28:23;23.60;99.90
14093;DHT22;7123;49.468;10.992;2023-10-13T12:30:50;23.70;99.90
14093;DHT22;7123;49.468;10.992;2023-10-13T12:33:23;23.90;99.90
14093;DHT22;7123;49.468;10.992;2023-10-13T12:35:56;24.00;99.90
14093;DHT22;7123;49.468;10.992;2023-10-13T12:38:41;23.90;99.90
14093;DHT22;7123;49.468;10.992;2023-10-13T12:41:16;23.60;99.90
14093;DHT22;7123;49.468;10.992;2023-10-13T12:44:03;23.30;99.90
14093;DHT22;7123;49.468;10.992;2023-10-13T12:46:53;23.10;99.90
14093;DHT22;7123;49.468;10.992;2023-10-13T12:49:39;23.10;99.90
14093;DHT22;7123;49.468;10.992;2023-10-13T12:52:10;23.20;99.90
14093;DHT22;7123;49.468;10.992;2023-10-13T12:54:43;23.20;99.90
14093;DHT22;7123;49.468;10.992;2023-10-13T12:57:27;23.20;99.90
14093;DHT22;7123;49.468;10.992;2023-10-13T12:59:54;23.20;99.90
14093;DHT22;7123;49.468;10.992;2023-10-13T13:02:22;23.20;99.90
14093;DHT22;7123;49.468;10.992;2023-10-13T13:04:56;23.30;99.90
14093;DHT22;7123;49.468;10.992;2023-10-13T13:07:43;23.30;99.90
14093;DHT22;7123;49.468;10.992;2023-10-13T13:10:16;23.40;99.90
14093;DHT22;7123;49.468;10.992;2023-10-13T13:12:43;23.40;99.90
14093;DHT22;7123;49.468;10.992;2023-10-13T13:15:10;23.50;99.90
14093;DHT22;7123;49.468;10.992;2023-10-13T13:17:39;23.40;99.90
14093;DHT22;7123;49.468;10.992;2023-10-13T13:20:07;23.40;99.90
14093;DHT22;7123;49.468;10.992;2023-10-13T13:22:38;23.20;99.90
14093;DHT22;7123;49.468;10.992;2023-10-13T13:25:06;23.20;99.90
14093;DHT22;7123;49.468;10.992;2023-10-13T13:27:36;23.30;99.90
14093;DHT22;7123;49.468;10.992;2023-10-13T13:30:08;23.30;99.90
14093;DHT22;7123;49.468;10.992;2023-10-13T13:32:39;23.60;99.90
14093;DHT22;7123;49.468;10.992;2023-10-13T13:35:08;23.90;99.90
14093;DHT22;7123;49.468;10.992;2023-10-13T13:37:40;24.10;99.90
14093;DHT22;7123;49.468;10.992;2023-10-13T13:40:09;24.10;99.90
14093;DHT22;7123;49.468;10.992;2023-10-13T13:42:45;24.00;99.90
14093;DHT22;7123;49.468;10.992;2023-10-13T13:45:13;24.00;99.90
14093;DHT22;7123;49.468;10.992;2023-10-13T13:47:51;24.00;99.90
14093;DHT22;7123;49.468;10.992;2023-10-13T13:50:22;24.10;99.90
14093;DHT22;7123;49.468;10.992;2023-10-13T13:52:56;24.10;99.90
14093;DHT22;7123;49.468;10.992;2023-10-13T13:55:24;24.10;99.90
14093;DHT22;7123;49.468;10.992;2023-10-13T13:57:56;24.30;99.90
14093;DHT22;7123;49.468;10.992;2023-10-13T14:00:23;24.40;99.90
14093;DHT22;7123;49.468;10.992;2023-10-13T14:03:07;24.50;99.90
14093;DHT22;7123;49.468;10.992;2023-10-13T14:05:42;24.50;99.90
14093;DHT22;7123;49.468;10.992;2023-10-13T14:08:09;24.50;99.90
14093;DHT22;7123;49.468;10.992;2023-10-13T14:10:38;24.50;99.90
14093;DHT22;7123;49.468;10.992;2023-10-13T14:13:24;24.40;99.90
14093;DHT22;7123;49.468;10.992;2023-10-13T14:16:11;24.40;99.90
14093;DHT22;7123;49.468;10.992;2023-10-13T14:18:47;24.50;99.90
14093;DHT22;7123;49.468;10.992;2023-10-13T14:21:15;24.60;99.90
14093;DHT22;7123;49.468;10.992;2023-10-13T14:23:47;24.70;99.90
14093;DHT22;7123;49.468;10.992;2023-10-13T14:26:17;24.70;99.90
14093;DHT22;7123;49.468;10.992;2023-10-13T14:28:53;24.80;99.90
14093;DHT22;7123;49.468;10.992;2023-10-13T14:31:32;24.80;99.90
14093;DHT22;7123;49.468;10.992;2023-10-13T14:33:59;24.70;99.90
14093;DHT22;7123;49.468;10.992;2023-10-13T14:36:26;24.50;99.90
14093;DHT22;7123;49.468;10.992;2023-10-13T14:38:55;24.40;99.90
14093;DHT22;7123;49.468;10.992;2023-10-13T14:41:22;24.30;99.90
14093;DHT22;7123;49.468;10.992;2023-10-13T14:43:49;24.30;99.90
14093;DHT22;7123;49.468;10.992;2023-10-13T14:46:16;24.20;99.90
14093;DHT22;7123;49.468;10.992;2023-10-13T14:48:44;24.20;99.90
14093;DHT22;7123;49.468;10.992;2023-10-13T14:51:12;24.20;99.90
14093;DHT22;7123;49.468;10.992;2023-10-13T14:53:43;24.30;99.90
14093;DHT22;7123;49.468;10.992;2023-10-13T14:56:14;24.30;99.90
14093;DHT22;7123;49.468;10.992;2023-10-13T14:58:42;24.30;99.90
14093;DHT22;7123;49.468;10.992;2023-10-13T15:01:18;24.40;99.90
14093;DHT22;7123;49.468;10.992;2023-10-13T15:03:48;24.50;99.90
14093;DHT22;7123;49.468;10.992;2023-10-13T15:06:19;24.70;99.90
14093;DHT22;7123;49.468;10.992;2023-10-13T15:08:59;24.90;99.90
14093;DHT22;7123;49.468;10.992;2023-10-13T15:11:27;24.90;99.90
14093;DHT22;7123;49.468;10.992;2023-10-13T15:14:13;25.00;99.90
14093;DHT22;7123;49.468;10.992;2023-10-13T15:16:39;25.10;99.90
14093;DHT22;7123;49.468;10.992;2023-10-13T15:19:08;25.20;99.90
14093;DHT22;7123;49.468;10.992;2023-10-13T15:21:36;25.10;99.90
14093;DHT22;7123;49.468;10.992;2023-10-13T15:24:04;25.10;99.90
14093;DHT22;7123;49.468;10.992;2023-10-13T15:26:51;25.00;99.90
14093;DHT22;7123;49.468;10.992;2023-10-13T15:29:23;25.00;99.90
14093;DHT22;7123;49.468;10.992;2023-10-13T15:31:56;25.00;99.90
14093;DHT22;7123;49.468;10.992;2023-10-13T15:34:28;25.00;99.90
14093;DHT22;7123;49.468;10.992;2023-10-13T15:36:56;25.10;99.90
14093;DHT22;7123;49.468;10.992;2023-10-13T15:39:23;25.10;99.90
14093;DHT22;7123;49.468;10.992;2023-10-13T15:41:51;25.20;99.90
14093;DHT22;7123;49.468;10.992;2023-10-13T15:44:20;25.30;99.90
14093;DHT22;7123;49.468;10.992;2023-10-13T15:46:55;25.30;99.90
14093;DHT22;7123;49.468;10.992;2023-10-13T15:49:25;25.30;99.90
14093;DHT22;7123;49.468;10.992;2023-10-13T15:51:54;25.20;99.90
14093;DHT22;7123;49.468;10.992;2023-10-13T15:54:24;25.10;99.90
14093;DHT22;7123;49.468;10.992;2023-10-13T15:56:52;25.00;99.90
14093;DHT22;7123;49.468;10.992;2023-10-13T15:59:18;24.90;99.90
14093;DHT22;7123;49.468;10.992;2023-10-13T16:01:45;24.80;99.90
14093;DHT22;7123;49.468;10.992;2023-10-13T16:04:15;24.80;99.90
14093;DHT22;7123;49.468;10.992;2023-10-13T16:06:43;24.70;99.90
14093;DHT22;7123;49.468;10.992;2023-10-13T16:09:14;24.70;99.90
14093;DHT22;7123;49.468;10.992;2023-10-13T16:11:44;24.60;99.90
14093;DHT22;7123;49.468;10.992;2023-10-13T16:14:13;24.50;99.90
14093;DHT22;7123;49.468;10.992;2023-10-13T16:16:45;24.40;99.90
14093;DHT22;7123;49.468;10.992;2023-10-13T16:19:17;24.30;99.90
14093;DHT22;7123;49.468;10.992;2023-10-13T16:21:49;24.30;99.90
14093;DHT22;7123;49.468;10.992;2023-10-13T16:24:16;24.20;99.90
14093;DHT22;7123;49.468;10.992;2023-10-13T16:26:48;24.20;99.90
14093;DHT22;7123;49.468;10.992;2023-10-13T16:29:16;24.10;99.90